createdAt,value
2023-09-03T00:01:52.836Z,43.78
2023-09-03T00:04:21.551Z,47.53
2023-09-03T00:06:48.929Z,44.70
2023-09-03T00:09:17.386Z,44.42
2023-09-03T00:11:44.851Z,41.83
2023-09-03T00:14:12.240Z,49.67
2023-09-03T00:16:39.603Z,43.20
2023-09-03T00:19:07.071Z,41.15
2023-09-03T00:21:35.763Z,42.25
2023-09-03T00:24:03.263Z,45.58
2023-09-03T00:26:30.618Z,47.50
2023-09-03T00:28:58.147Z,49.88
2023-09-03T00:31:26.536Z,44.60
2023-09-03T00:33:54.134Z,46.17
2023-09-03T00:36:21.552Z,49.63
2023-09-03T00:38:51.664Z,47.28
2023-09-03T00:41:19.071Z,51.10
2023-09-03T00:43:46.454Z,51.05
2023-09-03T00:46:13.885Z,56.63
2023-09-03T00:48:42.428Z,51.17
2023-09-03T00:51:10.938Z,55.33
2023-09-03T00:53:39.600Z,55.95
2023-09-03T00:56:08.613Z,58.50
2023-09-03T00:58:36.565Z,53.35
2023-09-03T01:01:11.925Z,56.95
2023-09-03T01:03:39.467Z,57.60
2023-09-03T01:06:07.227Z,58.95
2023-09-03T01:08:35.062Z,60.72
2023-09-03T01:11:10.884Z,58.55
2023-09-03T01:13:41.640Z,61.25
2023-09-03T01:16:10.481Z,71.88
2023-09-03T01:18:39.346Z,76.82
2023-09-03T01:21:27.868Z,70.07
2023-09-03T01:24:00.976Z,77.20
2023-09-03T01:26:37.637Z,89.22
2023-09-03T01:29:07.727Z,77.05
2023-09-03T01:31:37.843Z,82.13
2023-09-03T01:34:06.295Z,93.45
2023-09-03T01:36:34.705Z,91.85
2023-09-03T01:39:04.302Z,85.45
2023-09-03T01:41:33.559Z,101.55
2023-09-03T01:44:00.973Z,93.38
2023-09-03T01:46:36.378Z,90.80
2023-09-03T01:49:06.556Z,89.03
2023-09-03T01:51:36.800Z,82.22
2023-09-03T01:54:08.040Z,94.13
2023-09-03T01:56:37.844Z,89.57
2023-09-03T01:59:20.239Z,87.22
2023-09-03T02:01:51.591Z,89.72
2023-09-03T02:04:19.739Z,79.95
2023-09-03T02:06:47.550Z,85.28
2023-09-03T02:09:15.421Z,83.05
2023-09-03T02:11:42.921Z,84.63
2023-09-03T02:14:10.331Z,87.85
2023-09-03T02:16:37.702Z,86.57
2023-09-03T02:19:06.429Z,81.68
2023-09-03T02:21:33.789Z,80.93
2023-09-03T02:24:01.326Z,90.30
2023-09-03T02:26:28.659Z,89.10
2023-09-03T02:28:56.061Z,92.57
2023-09-03T02:31:23.444Z,95.00
2023-09-03T02:33:50.779Z,95.18
2023-09-03T02:36:19.468Z,87.10
2023-09-03T02:38:47.930Z,85.20
2023-09-03T02:41:15.324Z,95.43
2023-09-03T02:43:42.651Z,85.32
2023-09-03T02:46:10.292Z,102.22
2023-09-03T02:48:37.721Z,98.32
2023-09-03T02:51:05.181Z,94.30
2023-09-03T02:53:33.934Z,94.28
2023-09-03T02:56:01.295Z,89.60
2023-09-03T02:58:28.698Z,110.55
2023-09-03T03:00:56.268Z,121.75
2023-09-03T03:03:23.650Z,99.13
2023-09-03T03:05:53.650Z,116.20
2023-09-03T03:08:21.192Z,119.80
2023-09-03T03:10:51.213Z,122.32
2023-09-03T03:13:18.738Z,125.72
2023-09-03T03:15:47.420Z,124.88
2023-09-03T03:18:14.833Z,127.45
2023-09-03T03:20:42.398Z,112.63
2023-09-03T03:23:09.750Z,112.60
2023-09-03T03:25:37.137Z,116.18
2023-09-03T03:28:06.425Z,113.45
2023-09-03T03:30:33.787Z,129.55
2023-09-03T03:33:01.179Z,112.10
2023-09-03T03:35:28.561Z,123.05
2023-09-03T03:37:55.961Z,131.30
2023-09-03T03:40:23.387Z,133.75
2023-09-03T03:42:50.706Z,130.75
2023-09-03T03:45:19.369Z,144.18
2023-09-03T03:47:46.744Z,134.35
2023-09-03T03:50:14.147Z,133.15
2023-09-03T03:52:42.467Z,133.93
2023-09-03T03:55:10.043Z,123.95
2023-09-03T03:57:37.405Z,125.22
2023-09-03T04:00:05.353Z,125.93
2023-09-03T04:02:34.034Z,128.80
2023-09-03T04:05:02.182Z,126.28
2023-09-03T04:07:29.561Z,132.43
2023-09-03T04:09:56.893Z,132.55
2023-09-03T04:12:24.406Z,126.97
2023-09-03T04:14:51.746Z,129.88
2023-09-03T04:17:19.085Z,137.85
2023-09-03T04:19:49.058Z,132.40
2023-09-03T04:22:16.492Z,136.45
2023-09-03T04:24:43.824Z,130.68
2023-09-03T04:27:11.227Z,124.97
2023-09-03T04:29:38.870Z,116.88
2023-09-03T04:32:06.721Z,117.28
2023-09-03T04:34:34.104Z,107.13
2023-09-03T04:37:03.092Z,120.30
2023-09-03T04:39:30.432Z,116.80
2023-09-03T04:41:58.460Z,131.73
2023-09-03T04:44:25.864Z,128.02
2023-09-03T04:46:53.202Z,123.97
2023-09-03T04:49:24.234Z,120.97
2023-09-03T04:51:51.597Z,121.00
2023-09-03T04:54:20.292Z,114.68
2023-09-03T04:56:48.362Z,116.18
2023-09-03T04:59:15.778Z,107.85
2023-09-03T06:00:52.063Z,195.25
2023-09-03T06:03:19.541Z,167.23
2023-09-03T06:05:46.998Z,215.32
2023-09-03T06:08:14.416Z,173.73
2023-09-03T07:09:32.175Z,100.97
2023-09-03T07:20:04.917Z,70.03
2023-09-03T07:22:32.292Z,70.13
2023-09-03T07:25:01.130Z,61.33
2023-09-03T07:27:28.505Z,68.38
2023-09-03T08:16:27.899Z,49.60
2023-09-03T08:41:28.364Z,40.05
2023-09-03T08:43:56.575Z,39.28
2023-09-03T08:46:26.053Z,39.05
2023-09-03T08:48:55.327Z,38.53
2023-09-03T08:51:23.417Z,38.17
2023-09-03T08:53:51.880Z,36.25
2023-09-03T08:56:19.324Z,42.78
2023-09-03T08:58:48.025Z,41.17
2023-09-03T09:01:15.755Z,41.60
2023-09-03T09:03:43.745Z,39.88
2023-09-03T09:06:11.757Z,41.92
2023-09-03T09:08:40.605Z,40.15
2023-09-03T09:11:12.832Z,41.78
2023-09-03T09:13:45.760Z,38.13
2023-09-03T09:16:19.306Z,35.78
2023-09-03T09:18:46.664Z,36.25
2023-09-03T09:21:14.149Z,35.55
2023-09-03T09:23:41.576Z,35.20
2023-09-03T09:26:26.272Z,37.08
2023-09-03T09:29:00.451Z,32.28
2023-09-03T09:31:30.444Z,33.05
2023-09-03T09:33:58.183Z,31.67
2023-09-03T09:36:28.388Z,31.40
2023-09-03T09:39:05.477Z,34.78
2023-09-03T09:41:38.399Z,33.63
2023-09-03T09:44:12.445Z,28.80
2023-09-03T09:46:43.076Z,32.95
2023-09-03T09:49:11.656Z,35.47
2023-09-03T09:51:41.675Z,31.58
2023-09-03T09:54:11.961Z,32.50
2023-09-03T09:56:40.882Z,30.88
2023-09-03T09:59:12.614Z,28.83
2023-09-03T10:01:48.211Z,30.13
2023-09-03T10:04:26.889Z,32.17
2023-09-03T10:06:55.351Z,28.60
2023-09-03T10:09:23.982Z,28.30
2023-09-03T10:11:52.924Z,25.98
2023-09-03T10:14:24.155Z,25.75
2023-09-03T10:16:55.004Z,25.23
2023-09-03T10:19:25.003Z,27.02
2023-09-03T10:21:55.081Z,22.45
2023-09-03T10:24:23.874Z,20.90
2023-09-03T10:26:54.021Z,25.20
2023-09-03T10:29:22.478Z,21.17
2023-09-03T10:31:50.662Z,18.50
2023-09-03T10:34:19.615Z,19.73
2023-09-03T10:37:06.485Z,19.52
2023-09-03T10:39:33.888Z,19.42
2023-09-03T10:42:19.800Z,18.42
2023-09-03T10:44:52.138Z,17.73
2023-09-03T10:47:19.656Z,17.95
2023-09-03T10:49:49.409Z,18.80
2023-09-03T10:52:36.155Z,18.75
2023-09-03T10:55:17.295Z,18.85
2023-09-03T10:57:45.403Z,18.17
2023-09-03T11:00:14.740Z,23.30
2023-09-03T11:02:49.128Z,17.13
2023-09-03T11:05:22.910Z,15.23
2023-09-03T11:07:51.123Z,15.32
2023-09-03T11:10:37.367Z,15.10
2023-09-03T11:13:05.813Z,13.40
2023-09-03T11:15:33.377Z,13.60
2023-09-03T11:18:00.868Z,12.63
2023-09-03T11:20:43.498Z,14.05
2023-09-03T11:23:17.655Z,14.90
2023-09-03T11:25:45.122Z,11.82
2023-09-03T11:28:15.726Z,12.65
2023-09-03T11:30:43.940Z,12.65
2023-09-03T11:33:23.492Z,11.98
2023-09-03T11:35:54.654Z,12.80
2023-09-03T11:38:23.199Z,11.50
2023-09-03T11:40:54.326Z,12.63
2023-09-03T11:43:21.980Z,9.00
2023-09-03T11:45:49.542Z,10.80
2023-09-03T11:48:17.146Z,9.90
2023-09-03T11:50:44.526Z,8.38
2023-09-03T11:53:13.232Z,8.13
2023-09-03T11:55:43.253Z,11.25
2023-09-03T11:58:12.646Z,10.07
2023-09-03T12:00:40.149Z,8.73
2023-09-03T12:03:07.904Z,9.05
2023-09-03T12:05:36.102Z,9.15
2023-09-03T12:08:04.066Z,7.85
2023-09-03T12:10:33.241Z,8.60
2023-09-03T12:13:02.642Z,8.63
2023-09-03T12:15:31.135Z,6.78
2023-09-03T12:18:06.681Z,8.40
2023-09-03T12:20:35.128Z,7.15
2023-09-03T12:23:09.833Z,7.78
2023-09-03T12:28:07.394Z,5.32
2023-09-03T12:30:53.293Z,7.03
2023-09-03T12:33:20.941Z,5.88
2023-09-03T12:36:03.567Z,4.35
2023-09-03T12:38:30.916Z,4.93
2023-09-03T12:40:58.315Z,6.43
2023-09-03T12:43:27.562Z,6.93
2023-09-03T12:45:58.046Z,5.45
2023-09-03T12:48:25.461Z,5.28
2023-09-03T12:50:52.848Z,7.05
2023-09-03T12:53:20.428Z,5.60
2023-09-03T12:55:49.005Z,5.28
2023-09-03T12:58:16.368Z,6.05
2023-09-03T13:00:45.327Z,4.57
2023-09-03T13:03:12.792Z,6.00
2023-09-03T13:05:40.273Z,3.50
2023-09-03T13:08:07.830Z,3.58
2023-09-03T13:10:35.165Z,3.63
2023-09-03T13:13:03.853Z,4.00
2023-09-03T13:15:31.210Z,3.22
2023-09-03T13:18:00.002Z,3.72
2023-09-03T13:20:27.586Z,4.00
2023-09-03T13:22:55.026Z,4.10
2023-09-03T13:25:33.864Z,4.18
2023-09-03T13:28:02.771Z,3.45
2023-09-03T13:30:30.165Z,3.67
2023-09-03T13:32:58.148Z,3.88
2023-09-03T13:35:29.003Z,2.90
2023-09-03T13:37:56.415Z,2.97
2023-09-03T13:40:23.797Z,2.58
2023-09-03T13:42:51.220Z,3.50
2023-09-03T13:45:21.257Z,6.38
2023-09-03T13:47:48.819Z,3.30
2023-09-03T13:50:17.444Z,2.58
2023-09-03T13:52:46.227Z,4.60
2023-09-03T13:55:13.657Z,2.50
2023-09-03T13:57:41.060Z,3.70
2023-09-03T14:00:11.812Z,2.80
2023-09-03T14:02:39.262Z,3.42
2023-09-03T14:05:06.955Z,2.80
2023-09-03T14:07:34.334Z,4.75
2023-09-03T14:10:03.201Z,2.40
2023-09-03T14:12:30.636Z,4.93
2023-09-03T14:14:58.027Z,4.25
2023-09-03T14:17:25.675Z,2.60
2023-09-03T14:19:53.120Z,3.72
2023-09-03T14:22:20.481Z,2.95
2023-09-03T14:24:47.917Z,4.03
2023-09-03T14:27:16.676Z,2.95
2023-09-03T14:29:44.089Z,3.22
2023-09-03T14:32:11.625Z,3.75
2023-09-03T14:34:41.074Z,4.82
2023-09-03T14:37:08.509Z,2.50
2023-09-03T14:39:36.068Z,3.97
2023-09-03T14:42:03.623Z,4.57
2023-09-03T14:44:32.368Z,3.40
2023-09-03T14:46:59.768Z,3.53
2023-09-03T14:49:44.440Z,3.63
2023-09-03T14:52:13.327Z,3.17
2023-09-03T14:54:40.963Z,4.38
2023-09-03T14:57:09.015Z,5.10
2023-09-03T14:59:37.825Z,4.50
2023-09-03T15:02:05.259Z,4.57
2023-09-03T15:04:32.673Z,3.17
2023-09-03T15:07:00.248Z,4.22
2023-09-03T15:09:28.573Z,4.53
2023-09-03T15:11:56.082Z,3.75
2023-09-03T15:14:23.567Z,3.70
2023-09-03T15:16:52.308Z,3.90
2023-09-03T15:19:21.229Z,4.32
2023-09-03T15:21:50.355Z,3.47
2023-09-03T15:24:18.156Z,3.97
2023-09-03T15:26:47.006Z,6.10
2023-09-03T15:29:14.522Z,2.85
2023-09-03T15:31:42.076Z,3.05
2023-09-03T15:34:11.882Z,3.80
2023-09-03T15:36:39.408Z,4.40
2023-09-03T15:39:06.829Z,6.05
2023-09-03T15:41:34.210Z,3.97
2023-09-03T15:44:04.782Z,4.25
2023-09-03T15:46:32.335Z,4.10
2023-09-03T15:49:01.104Z,3.67
2023-09-03T15:51:30.611Z,3.80
2023-09-03T15:53:57.989Z,3.92
2023-09-03T15:56:25.507Z,7.15
2023-09-03T15:58:53.509Z,4.80
2023-09-03T16:01:20.892Z,3.17
2023-09-03T16:03:48.353Z,3.33
2023-09-03T16:06:15.833Z,4.88
2023-09-03T16:08:44.592Z,3.58
2023-09-03T16:11:12.721Z,8.82
2023-09-03T16:13:40.162Z,5.28
2023-09-03T16:16:08.747Z,4.55
2023-09-03T16:18:36.374Z,4.00
2023-09-03T16:21:03.844Z,6.43
2023-09-03T16:23:31.279Z,4.20
2023-09-03T16:26:00.000Z,3.40
2023-09-03T16:28:27.390Z,3.80
2023-09-03T16:30:58.295Z,4.65
2023-09-03T16:33:25.696Z,3.58
2023-09-03T16:35:53.187Z,3.80
2023-09-03T16:38:20.770Z,4.72
2023-09-03T16:40:48.345Z,4.45
2023-09-03T16:43:17.043Z,5.05
2023-09-03T16:45:44.509Z,3.10
2023-09-03T16:48:11.998Z,2.78
2023-09-03T16:50:40.079Z,4.78
2023-09-03T16:53:07.448Z,5.25
2023-09-03T16:55:34.859Z,5.85
2023-09-03T16:58:02.379Z,3.90
2023-09-03T17:00:31.067Z,5.00
2023-09-03T17:02:58.501Z,3.80
2023-09-03T17:05:25.925Z,5.00
2023-09-03T17:07:53.296Z,3.80
2023-09-03T17:10:30.450Z,4.22
2023-09-03T17:12:57.920Z,5.55
2023-09-03T17:15:25.305Z,5.82
2023-09-03T17:18:00.072Z,4.68
2023-09-03T17:20:27.480Z,4.53
2023-09-03T17:23:03.792Z,4.60
2023-09-03T17:25:39.052Z,5.88
2023-09-03T17:28:13.041Z,3.80
2023-09-03T17:30:40.517Z,4.73
2023-09-03T17:33:22.084Z,6.85
2023-09-03T17:35:56.068Z,4.07
2023-09-03T17:38:24.007Z,3.13
2023-09-03T17:41:06.266Z,3.38
2023-09-03T17:43:40.568Z,4.53
2023-09-03T17:46:15.145Z,4.60
2023-09-03T17:48:43.835Z,4.07
2023-09-03T17:51:18.090Z,4.10
2023-09-03T17:53:45.493Z,3.80
2023-09-03T17:56:19.098Z,4.78
2023-09-03T17:58:46.499Z,4.75
2023-09-03T18:01:20.114Z,4.15
2023-09-03T18:03:48.912Z,4.88
2023-09-03T18:06:16.325Z,6.15
2023-09-03T18:08:51.106Z,5.05
2023-09-03T18:13:53.158Z,6.60
2023-09-03T18:16:20.628Z,6.28
2023-09-03T18:18:49.327Z,5.03
2023-09-03T18:21:23.114Z,7.82
2023-09-03T18:23:50.502Z,7.93
2023-09-03T18:26:24.130Z,9.55
2023-09-03T18:28:51.481Z,7.85
2023-09-03T18:31:25.187Z,7.15
2023-09-03T18:34:00.137Z,8.07
2023-09-03T18:36:27.484Z,8.07
2023-09-03T18:39:01.146Z,6.65
2023-09-03T18:41:35.245Z,7.10
2023-09-03T18:44:09.193Z,5.78
2023-09-03T18:46:36.581Z,6.80
2023-09-03T18:49:12.276Z,6.32
2023-09-03T18:51:39.660Z,7.90
2023-09-03T18:54:07.127Z,6.78
2023-09-03T18:56:41.189Z,6.68
2023-09-03T18:59:08.565Z,6.20
2023-09-03T19:01:36.923Z,5.55
2023-09-03T19:04:06.047Z,7.32
2023-09-03T19:06:33.454Z,5.95
2023-09-03T19:09:02.116Z,6.18
2023-09-03T19:11:29.922Z,5.75
2023-09-03T19:13:57.292Z,5.93
2023-09-03T19:16:25.349Z,5.82
2023-09-03T19:18:52.806Z,4.75
2023-09-03T19:21:21.532Z,6.05
2023-09-03T19:23:49.037Z,6.90
2023-09-03T19:26:16.625Z,7.65
2023-09-03T19:28:45.150Z,6.10
2023-09-03T19:31:12.592Z,6.13
2023-09-03T19:33:40.038Z,7.05
2023-09-03T19:36:07.586Z,9.23
2023-09-03T19:38:36.358Z,7.22
2023-09-03T19:41:04.065Z,7.82
2023-09-03T19:43:31.555Z,6.20
2023-09-03T19:45:59.840Z,9.82
2023-09-03T19:48:31.350Z,7.45
2023-09-03T19:50:59.201Z,7.95
2023-09-03T19:53:26.594Z,8.20
2023-09-03T19:55:55.360Z,8.38
2023-09-03T19:58:23.130Z,12.23
2023-09-03T20:00:52.101Z,11.10
2023-09-03T20:03:19.522Z,6.80
2023-09-03T20:05:56.246Z,6.55
2023-09-03T20:08:23.828Z,6.50
2023-09-03T20:10:51.375Z,7.78
2023-09-03T20:13:20.181Z,6.65
2023-09-03T20:15:55.118Z,6.65
2023-09-03T20:18:22.725Z,7.43
2023-09-03T20:20:53.658Z,8.27
2023-09-03T20:23:21.287Z,8.02
2023-09-03T20:25:56.266Z,10.90
2023-09-03T20:28:31.834Z,7.78
2023-09-03T20:31:07.480Z,8.05
2023-09-03T20:33:34.945Z,11.55
2023-09-03T20:36:02.420Z,6.72
2023-09-03T20:38:29.825Z,6.55
2023-09-03T20:40:57.677Z,9.15
2023-09-03T20:43:28.044Z,7.00
2023-09-03T20:45:56.860Z,9.27
2023-09-03T20:48:24.959Z,6.95
2023-09-03T20:50:52.474Z,7.78
2023-09-03T20:53:19.852Z,9.73
2023-09-03T20:55:51.084Z,8.20
2023-09-03T20:58:18.496Z,7.57
2023-09-03T21:00:47.564Z,8.18
2023-09-03T21:03:15.450Z,9.15
2023-09-03T21:05:49.240Z,8.82
2023-09-03T21:08:16.664Z,10.35
2023-09-03T21:10:44.008Z,8.75
2023-09-03T21:13:11.434Z,18.60
2023-09-03T21:15:39.956Z,8.98
2023-09-03T21:18:08.729Z,8.02
2023-09-03T21:20:36.137Z,8.80
2023-09-03T21:23:03.558Z,10.85
2023-09-03T21:25:34.334Z,9.15
2023-09-03T21:28:01.729Z,7.85
2023-09-03T21:30:30.965Z,9.02
2023-09-03T21:32:58.483Z,7.45
2023-09-03T21:35:27.239Z,10.20
2023-09-03T21:37:54.617Z,9.15
2023-09-03T21:40:22.023Z,11.13
2023-09-03T21:42:50.073Z,11.02
2023-09-03T21:45:17.612Z,9.20
2023-09-03T21:47:45.054Z,6.68
2023-09-03T21:50:12.505Z,13.48
2023-09-03T21:52:41.313Z,8.77
2023-09-03T21:55:09.132Z,8.18
2023-09-03T21:57:36.473Z,8.75
2023-09-03T22:00:07.347Z,8.35
2023-09-03T22:02:34.776Z,8.20
2023-09-03T22:05:02.372Z,9.60
2023-09-03T22:07:29.752Z,9.77
2023-09-03T22:09:58.570Z,9.93
2023-09-03T22:12:26.011Z,10.52
2023-09-03T22:14:53.364Z,7.10
2023-09-03T22:17:20.724Z,10.07
2023-09-03T22:19:48.841Z,7.97
2023-09-03T22:22:16.199Z,9.65
2023-09-03T22:24:43.562Z,9.07
2023-09-03T22:27:12.236Z,8.90
2023-09-03T22:29:39.704Z,9.40
2023-09-03T22:32:07.584Z,10.35
2023-09-03T22:34:34.941Z,11.90
2023-09-03T22:37:02.416Z,9.45
2023-09-03T22:39:30.546Z,9.50
2023-09-03T22:41:58.712Z,9.32
2023-09-03T22:44:27.426Z,8.70
2023-09-03T22:46:54.799Z,10.65
2023-09-03T22:49:22.157Z,9.27
2023-09-03T22:51:49.531Z,9.45
2023-09-03T22:54:16.894Z,10.23
2023-09-03T22:56:44.268Z,11.00
2023-09-03T22:59:11.627Z,13.02
2023-09-03T23:01:40.454Z,11.75
2023-09-03T23:04:08.069Z,10.15
2023-09-03T23:06:35.447Z,13.38
2023-09-03T23:09:02.861Z,10.02
2023-09-03T23:11:30.230Z,13.23
2023-09-03T23:13:57.842Z,10.18
2023-09-03T23:16:25.425Z,11.88
2023-09-03T23:18:54.156Z,10.88
2023-09-03T23:21:21.525Z,8.93
2023-09-03T23:23:49.962Z,9.13
2023-09-03T23:26:19.822Z,9.50
2023-09-03T23:28:47.570Z,7.63
2023-09-03T23:31:15.354Z,11.68
2023-09-03T23:33:42.910Z,8.82
2023-09-03T23:36:11.643Z,12.38
2023-09-03T23:38:39.119Z,10.18
2023-09-03T23:41:06.444Z,9.68
2023-09-03T23:43:33.798Z,9.80
2023-09-03T23:46:01.169Z,10.93
2023-09-03T23:48:28.558Z,10.07
2023-09-03T23:50:55.911Z,12.23
2023-09-03T23:53:24.643Z,11.68
2023-09-03T23:55:52.889Z,10.95
2023-09-03T23:58:20.443Z,9.00
